Marstein — LAQN — position and weather

sailwx.info

Track history (hours):
 
Tides and Currents Weather Stations Pressure Air Temp Water Temp Dewpoint Dewpoint Depression Visibility Wind Speed Wind Dir Waves Ship Positions

Marstein

Last reported at 2017-Mar-22 22:33 UTC. Time now 2017-Mar-23 00:09 UTC.
Position N 60°13' E 005°35'.

Length 87 m; draft 4.7 m.

Type: Passenger vessel. MMSI: 257317400.

Date/timePositionNaut miles runAvg speedWind from/ knotsBaromVisibWave heightAir tempDewpointWater temp
2017-Mar-22 22:33N 60°13' E 005°35'0 0.3
2017-Mar-22 21:34N 60°12' E 005°36'0 0.0
2017-Mar-22 20:33N 60°12' E 005°36'0 0.0
2017-Mar-22 19:33N 60°12' E 005°36'2 1.5
2017-Mar-22 18:31N 60°13' E 005°33'1 1.3
2017-Mar-22 17:33N 60°13' E 005°35'1 0.8
2017-Mar-22 16:33N 60°13' E 005°33'0 0.0
2017-Mar-22 15:33N 60°13' E 005°33'1 1.0
2017-Mar-22 14:33N 60°13' E 005°35'1 1.1
2017-Mar-22 13:33N 60°13' E 005°33'1 1.2
2017-Mar-22 12:33N 60°12' E 005°35'0 0.2
2017-Mar-22 11:33N 60°12' E 005°36'2 1.6
2017-Mar-22 10:31N 60°13' E 005°32'0 0.3
2017-Mar-22 09:34N 60°13' E 005°33'0 0.1
2017-Mar-22 08:33N 60°13' E 005°33'1 1.3
2017-Mar-22 07:34N 60°12' E 005°36'2 1.6
2017-Mar-22 06:32N 60°13' E 005°32'1 1.4
2017-Mar-22 05:33N 60°13' E 005°35'0 0.4
2017-Mar-22 04:33N 60°12' E 005°36'0 0.0
2017-Mar-22 03:33N 60°12' E 005°36'0 0.0
2017-Mar-22 02:33N 60°12' E 005°36'0 0.0
2017-Mar-22 01:33N 60°12' E 005°36'0 0.0
2017-Mar-22 00:33N 60°12' E 005°36'0 0.0
2017-Mar-21 23:33N 60°12' E 005°36'0 0.2
2017-Mar-21 22:33N 60°13' E 005°35'0 0.1
2017-Mar-21 21:33N 60°12' E 005°35'0 0.2
2017-Mar-21 20:33N 60°12' E 005°36'0 0.1
2017-Mar-21 19:34N 60°12' E 005°36'2 1.5
2017-Mar-21 18:30N 60°13' E 005°32'1 0.9
2017-Mar-21 17:33N 60°13' E 005°34'0 0.3
2017-Mar-21 16:33N 60°13' E 005°34'0 0.4
2017-Mar-21 15:33N 60°13' E 005°33'1 1.3
2017-Mar-21 14:33N 60°13' E 005°35'1 1.2
2017-Mar-21 13:34N 60°13' E 005°33'1 1.3
2017-Mar-21 12:34N 60°13' E 005°36'0 0.2
2017-Mar-21 11:33N 60°12' E 005°36'2 1.6
2017-Mar-21 10:31N 60°13' E 005°32'0 0.5
2017-Mar-21 09:33N 60°13' E 005°33'0 0.4
2017-Mar-21 08:33N 60°13' E 005°34'1 0.9
2017-Mar-21 07:33N 60°12' E 005°36'2 1.7
2017-Mar-21 06:33N 60°13' E 005°32'1 1.3
2017-Mar-21 05:33N 60°13' E 005°35'0 0.4
2017-Mar-21 04:33N 60°12' E 005°36'0 0.0
2017-Mar-21 03:31N 60°12' E 005°36'0 0.0
2017-Mar-21 02:31N 60°12' E 005°36'0 0.0
2017-Mar-21 01:31N 60°12' E 005°36'0 0.0
2017-Mar-21 00:31N 60°12' E 005°36'0 0.0
2017-Mar-20 23:31N 60°12' E 005°36'0 0.0
2017-Mar-20 22:33N 60°12' E 005°36'0 0.0
2017-Mar-20 21:33N 60°12' E 005°36'0 0.0
2017-Mar-20 20:33N 60°12' E 005°36'0 0.0
2017-Mar-20 19:33N 60°12' E 005°36'2 1.5
2017-Mar-20 18:31N 60°13' E 005°33'1 1.3
2017-Mar-20 17:33N 60°13' E 005°35'1 1.0
2017-Mar-20 16:34N 60°13' E 005°33'0 0.0
2017-Mar-20 15:33N 60°13' E 005°33'1 1.0
2017-Mar-20 14:33N 60°13' E 005°35'1 1.1
2017-Mar-20 13:33N 60°13' E 005°33'1 1.2
2017-Mar-20 12:33N 60°13' E 005°35'0 0.2
2017-Mar-20 11:32N 60°12' E 005°36'1 1.4
2017-Mar-20 10:29N 60°13' E 005°33'0 0.0
2017-Mar-20 09:33N 60°13' E 005°33'1 0.9
2017-Mar-20 08:33N 60°13' E 005°35'1 0.6
2017-Mar-20 07:32N 60°12' E 005°36'2 1.6
2017-Mar-20 06:29N 60°13' E 005°32'1 1.2
2017-Mar-20 05:33N 60°13' E 005°35'1 0.6
2017-Mar-20 04:33N 60°12' E 005°36'0 0.0
2017-Mar-20 03:33N 60°12' E 005°36'0 0.0
2017-Mar-20 02:30N 60°12' E 005°36'0 0.0
2017-Mar-20 01:30N 60°12' E 005°36'0 0.0
2017-Mar-20 00:33N 60°12' E 005°36'0 0.0
2017-Mar-19 23:33N 60°12' E 005°36'0 0.4
2017-Mar-19 22:33N 60°13' E 005°35'1 1.3
2017-Mar-19 21:33N 60°13' E 005°32'1 1.5
2017-Mar-19 20:33N 60°13' E 005°35'0 0.2
2017-Mar-19 19:33N 60°12' E 005°36'2 1.5
2017-Mar-19 18:31N 60°13' E 005°33'1 1.0
2017-Mar-19 17:33N 60°13' E 005°35'1 0.5
2017-Mar-19 16:33N 60°13' E 005°34'0 0.3
2017-Mar-19 15:33N 60°13' E 005°33'1 1.1
2017-Mar-19 14:33N 60°13' E 005°35'1 1.0
2017-Mar-19 13:33N 60°13' E 005°33'1 1.0
2017-Mar-19 12:33N 60°13' E 005°35'0 0.3
2017-Mar-19 11:33N 60°12' E 005°36'2 1.5
2017-Mar-19 10:34N 60°13' E 005°33'0 0.1
2017-Mar-19 09:27N 60°13' E 005°32'1 1.4
2017-Mar-19 08:33N 60°13' E 005°35'0 0.5
2017-Mar-19 07:34N 60°12' E 005°36'1 1.1
2017-Mar-19 06:33N 60°13' E 005°33'1 0.1
2017-Mar-18 22:13N 60°13' E 005°32'0 0.0
2017-Mar-18 21:33N 60°13' E 005°32'2 1.6
2017-Mar-18 20:32N 60°12' E 005°36'0 0.0
2017-Mar-18 19:33N 60°12' E 005°36'2 1.7
2017-Mar-18 18:33N 60°13' E 005°32'1 1.0
2017-Mar-18 17:33N 60°13' E 005°34'0 0.4
2017-Mar-18 16:33N 60°13' E 005°33'0 0.2
2017-Mar-18 15:33N 60°13' E 005°33'1 1.2
2017-Mar-18 14:33N 60°13' E 005°35'1 1.1
2017-Mar-18 13:33N 60°13' E 005°33'1 1.2
2017-Mar-18 12:32N 60°12' E 005°35'0 0.2
2017-Mar-18 11:33N 60°12' E 005°36'1 1.2
2017-Mar-18 10:33N 60°13' E 005°33'0 0.4
2017-Mar-18 09:26N 60°13' E 005°33'1 1.3
2017-Mar-18 08:33N 60°13' E 005°35'0 0.4
2017-Mar-18 07:33N 60°12' E 005°36'1 1.0
2017-Mar-18 06:33N 60°13' E 005°34'1 0.7
2017-Mar-18 05:33N 60°13' E 005°32'2 1.6
2017-Mar-18 04:32N 60°12' E 005°36'0 0.0
2017-Mar-18 02:26N 60°12' E 005°36'0 0.0
2017-Mar-18 01:29N 60°12' E 005°36'0 0.0
2017-Mar-18 00:32N 60°12' E 005°36'0 0.0
2017-Mar-17 23:32N 60°12' E 005°36'0 0.2
2017-Mar-17 22:33N 60°12' E 005°35'0 0.2
2017-Mar-17 21:33N 60°12' E 005°36'0 0.0
2017-Mar-17 20:33N 60°12' E 005°36'0 0.0
2017-Mar-17 19:33N 60°12' E 005°36'2 1.5
2017-Mar-17 18:31N 60°13' E 005°33'1 0.9
2017-Mar-17 17:33N 60°13' E 005°34'1 0.5
2017-Mar-17 16:33N 60°13' E 005°33'0 0.2
2017-Mar-17 15:33N 60°13' E 005°33'1 1.3
2017-Mar-17 14:33N 60°12' E 005°36'1 1.3
2017-Mar-17 13:33N 60°13' E 005°33'1 1.1
2017-Mar-17 12:33N 60°13' E 005°35'0 0.3
2017-Mar-17 11:32N 60°12' E 005°36'2 1.7
2017-Mar-17 10:32N 60°13' E 005°32'0 0.3
2017-Mar-17 09:33N 60°13' E 005°33'1 1.1
2017-Mar-17 08:33N 60°13' E 005°35'0 0.3
2017-Mar-17 07:33N 60°12' E 005°36'2 1.7
2017-Mar-17 06:32N 60°13' E 005°32'1 1.3
2017-Mar-17 05:33N 60°13' E 005°35'1 0.2
2017-Mar-16 23:10N 60°13' E 005°32'1 2.3
2017-Mar-16 22:33N 60°13' E 005°35'0 0.3
2017-Mar-16 21:33N 60°12' E 005°36'0 0.0
2017-Mar-16 20:29N 60°12' E 005°36'0 0.0
2017-Mar-16 19:33N 60°12' E 005°36'2 1.5
2017-Mar-16 18:32N 60°13' E 005°33'1 1.1
2017-Mar-16 17:33N 60°13' E 005°35'1 0.7
2017-Mar-16 16:33N 60°13' E 005°34'0 0.2
2017-Mar-16 15:33N 60°13' E 005°33'1 0.3
2017-Mar-16 13:15N 60°13' E 005°34'0 0.7
2017-Mar-16 12:33N 60°12' E 005°35'0 0.2
2017-Mar-16 11:33N 60°12' E 005°36'2 1.6
2017-Mar-16 10:31N 60°13' E 005°32'0 0.3
2017-Mar-16 09:33N 60°13' E 005°33'1 1.2
2017-Mar-16 08:33N 60°13' E 005°35'0 0.4
2017-Mar-16 07:33N 60°12' E 005°36'2 1.6
2017-Mar-16 06:29N 60°13' E 005°32'1 1.4
2017-Mar-16 05:33N 60°13' E 005°35'0 0.4
2017-Mar-16 04:33N 60°12' E 005°36'0 0.0
2017-Mar-16 03:26N 60°12' E 005°36'0 0.0
2017-Mar-16 02:26N 60°12' E 005°36'0 0.0
2017-Mar-16 01:32N 60°12' E 005°36'0 0.0
2017-Mar-16 00:26N 60°12' E 005°36'0 0.0
2017-Mar-15 23:32N 60°12' E 005°36'0 0.3
2017-Mar-15 22:33N 60°13' E 005°35'0 0.3
2017-Mar-15 21:33N 60°13' E 005°36'0 0.1
2017-Mar-15 20:33N 60°12' E 005°36'0 0.0
2017-Mar-15 19:33N 60°12' E 005°36'2 1.7
2017-Mar-15 18:33N 60°13' E 005°32'1 0.9
2017-Mar-15 17:33N 60°13' E 005°34'0 0.3
2017-Mar-15 16:33N 60°13' E 005°34'0 0.2
2017-Mar-15 15:33N 60°13' E 005°33'1 1.0
2017-Mar-15 14:33N 60°13' E 005°35'1 1.0
2017-Mar-15 13:33N 60°13' E 005°33'1 1.1
2017-Mar-15 12:33N 60°13' E 005°35'0 0.2
2017-Mar-15 11:33N 60°12' E 005°36'1 1.2
2017-Mar-15 10:29N 60°13' E 005°33'0 0.1
2017-Mar-15 09:33N 60°13' E 005°33'1 0.7
2017-Mar-15 08:32N 60°13' E 005°35'1 0.6
2017-Mar-15 07:32N 60°12' E 005°36'2 1.6
2017-Mar-15 06:33N 60°13' E 005°33'1 1.2
2017-Mar-15 05:34N 60°13' E 005°35'0 0.4
2017-Mar-15 04:32N 60°12' E 005°36'1 0.3
2017-Mar-14 23:07N 60°13' E 005°33'1 2.4
2017-Mar-14 22:33N 60°13' E 005°35'0 0.3
2017-Mar-14 21:33N 60°12' E 005°36'0 0.0
2017-Mar-14 20:33N 60°12' E 005°36'0 0.0
2017-Mar-14 19:33N 60°12' E 005°36'1 1.3
2017-Mar-14 18:30N 60°13' E 005°33'1 0.7
2017-Mar-14 17:33N 60°13' E 005°34'1 0.5
2017-Mar-14 16:33N 60°13' E 005°33'0 0.1
2017-Mar-14 15:33N 60°13' E 005°33'1 1.2
2017-Mar-14 14:32N 60°13' E 005°36'1 1.3
2017-Mar-14 13:33N 60°13' E 005°33'1 1.1
2017-Mar-14 12:33N 60°13' E 005°35'0 0.3
2017-Mar-14 11:33N 60°12' E 005°36'2 1.5
2017-Mar-14 10:30N 60°13' E 005°33'0 0.1
2017-Mar-14 09:28N 60°13' E 005°32'1 0.6
2017-Mar-14 08:33N 60°13' E 005°34'1 1.1
2017-Mar-14 07:33N 60°12' E 005°36'2 1.6
2017-Mar-14 06:29N 60°13' E 005°32'1 1.4
2017-Mar-14 05:33N 60°13' E 005°35'0 0.5
2017-Mar-14 04:33N 60°12' E 005°36'0 0.0
2017-Mar-14 03:21N 60°12' E 005°36'0 0.0
2017-Mar-14 02:33N 60°12' E 005°36'0 0.0
2017-Mar-14 01:27N 60°12' E 005°36'0 0.0
2017-Mar-14 00:33N 60°12' E 005°36'0 0.0
2017-Mar-13 23:33N 60°12' E 005°36'0 0.2
2017-Mar-13 22:33N 60°12' E 005°35'0 0.2
2017-Mar-13 21:33N 60°12' E 005°36'0 0.1
2017-Mar-13 20:33N 60°12' E 005°36'0 0.1
2017-Mar-13 19:33N 60°12' E 005°36'2 1.7
2017-Mar-13 18:33N 60°13' E 005°32'1 1.2
2017-Mar-13 17:33N 60°13' E 005°35'1 0.7
2017-Mar-13 16:34N 60°13' E 005°33'0 0.2
2017-Mar-13 15:33N 60°13' E 005°33'1 1.2
2017-Mar-13 14:33N 60°13' E 005°35'1 1.2
2017-Mar-13 13:33N 60°13' E 005°33'1 1.2
2017-Mar-13 12:33N 60°13' E 005°35'0 0.2
2017-Mar-13 11:33N 60°12' E 005°36'2 1.5
2017-Mar-13 10:30N 60°13' E 005°33'0 0.4
2017-Mar-13 09:34N 60°13' E 005°33'1 0.5
2017-Mar-13 08:33N 60°13' E 005°34'1 0.6
2017-Mar-13 07:33N 60°12' E 005°36'2 1.7
2017-Mar-13 06:32N 60°13' E 005°32'1 1.3
2017-Mar-13 05:33N 60°13' E 005°35'0 0.4
2017-Mar-13 04:32N 60°12' E 005°36'0 0.0
2017-Mar-13 03:33N 60°12' E 005°36'0 0.0
2017-Mar-13 01:21N 60°12' E 005°36'0 0.0
2017-Mar-13 00:21N 60°12' E 005°36'0 0.0
2017-Mar-12 23:27N 60°12' E 005°36'0 0.4
2017-Mar-12 22:33N 60°12' E 005°35'  
Track history (hours):
 
Tides and Currents Weather Stations Pressure Air Temp Water Temp Dewpoint Dewpoint Depression Visibility Wind Speed Wind Dir Waves Ship Positions

Marstein

Last reported at 2017-Mar-22 22:33 UTC. Time now 2017-Mar-23 00:09 UTC.
Position N 60°13' E 005°35'.

Length 87 m; draft 4.7 m.

Type: Passenger vessel. MMSI: 257317400.

Date/timePositionNaut miles runAvg speedWind from/ knotsBaromVisibWave heightAir tempDewpointWater temp
2017-Mar-22 22:33N 60°13' E 005°35'0 0.3
2017-Mar-22 21:34N 60°12' E 005°36'0 0.0
2017-Mar-22 20:33N 60°12' E 005°36'0 0.0
2017-Mar-22 19:33N 60°12' E 005°36'2 1.5
2017-Mar-22 18:31N 60°13' E 005°33'1 1.3
2017-Mar-22 17:33N 60°13' E 005°35'1 0.8
2017-Mar-22 16:33N 60°13' E 005°33'0 0.0
2017-Mar-22 15:33N 60°13' E 005°33'1 1.0
2017-Mar-22 14:33N 60°13' E 005°35'1 1.1
2017-Mar-22 13:33N 60°13' E 005°33'1 1.2
2017-Mar-22 12:33N 60°12' E 005°35'0 0.2
2017-Mar-22 11:33N 60°12' E 005°36'2 1.6
2017-Mar-22 10:31N 60°13' E 005°32'0 0.3
2017-Mar-22 09:34N 60°13' E 005°33'0 0.1
2017-Mar-22 08:33N 60°13' E 005°33'1 1.3
2017-Mar-22 07:34N 60°12' E 005°36'2 1.6
2017-Mar-22 06:32N 60°13' E 005°32'1 1.4
2017-Mar-22 05:33N 60°13' E 005°35'0 0.4
2017-Mar-22 04:33N 60°12' E 005°36'0 0.0
2017-Mar-22 03:33N 60°12' E 005°36'0 0.0
2017-Mar-22 02:33N 60°12' E 005°36'0 0.0
2017-Mar-22 01:33N 60°12' E 005°36'0 0.0
2017-Mar-22 00:33N 60°12' E 005°36'0 0.0
2017-Mar-21 23:33N 60°12' E 005°36'0 0.2
2017-Mar-21 22:33N 60°13' E 005°35'0 0.1
2017-Mar-21 21:33N 60°12' E 005°35'0 0.2
2017-Mar-21 20:33N 60°12' E 005°36'0 0.1
2017-Mar-21 19:34N 60°12' E 005°36'2 1.5
2017-Mar-21 18:30N 60°13' E 005°32'1 0.9
2017-Mar-21 17:33N 60°13' E 005°34'0 0.3
2017-Mar-21 16:33N 60°13' E 005°34'0 0.4
2017-Mar-21 15:33N 60°13' E 005°33'1 1.3
2017-Mar-21 14:33N 60°13' E 005°35'1 1.2
2017-Mar-21 13:34N 60°13' E 005°33'1 1.3
2017-Mar-21 12:34N 60°13' E 005°36'0 0.2
2017-Mar-21 11:33N 60°12' E 005°36'2 1.6
2017-Mar-21 10:31N 60°13' E 005°32'0 0.5
2017-Mar-21 09:33N 60°13' E 005°33'0 0.4
2017-Mar-21 08:33N 60°13' E 005°34'1 0.9
2017-Mar-21 07:33N 60°12' E 005°36'2 1.7
2017-Mar-21 06:33N 60°13' E 005°32'1 1.3
2017-Mar-21 05:33N 60°13' E 005°35'0 0.4
2017-Mar-21 04:33N 60°12' E 005°36'0 0.0
2017-Mar-21 03:31N 60°12' E 005°36'0 0.0
2017-Mar-21 02:31N 60°12' E 005°36'0 0.0
2017-Mar-21 01:31N 60°12' E 005°36'0 0.0
2017-Mar-21 00:31N 60°12' E 005°36'0 0.0
2017-Mar-20 23:31N 60°12' E 005°36'0 0.0
2017-Mar-20 22:33N 60°12' E 005°36'0 0.0
2017-Mar-20 21:33N 60°12' E 005°36'0 0.0
2017-Mar-20 20:33N 60°12' E 005°36'0 0.0
2017-Mar-20 19:33N 60°12' E 005°36'2 1.5
2017-Mar-20 18:31N 60°13' E 005°33'1 1.3
2017-Mar-20 17:33N 60°13' E 005°35'1 1.0
2017-Mar-20 16:34N 60°13' E 005°33'0 0.0
2017-Mar-20 15:33N 60°13' E 005°33'1 1.0
2017-Mar-20 14:33N 60°13' E 005°35'1 1.1
2017-Mar-20 13:33N 60°13' E 005°33'1 1.2
2017-Mar-20 12:33N 60°13' E 005°35'0 0.2
2017-Mar-20 11:32N 60°12' E 005°36'1 1.4
2017-Mar-20 10:29N 60°13' E 005°33'0 0.0
2017-Mar-20 09:33N 60°13' E 005°33'1 0.9
2017-Mar-20 08:33N 60°13' E 005°35'1 0.6
2017-Mar-20 07:32N 60°12' E 005°36'2 1.6
2017-Mar-20 06:29N 60°13' E 005°32'1 1.2
2017-Mar-20 05:33N 60°13' E 005°35'1 0.6
2017-Mar-20 04:33N 60°12' E 005°36'0 0.0
2017-Mar-20 03:33N 60°12' E 005°36'0 0.0
2017-Mar-20 02:30N 60°12' E 005°36'0 0.0
2017-Mar-20 01:30N 60°12' E 005°36'0 0.0
2017-Mar-20 00:33N 60°12' E 005°36'0 0.0
2017-Mar-19 23:33N 60°12' E 005°36'0 0.4
2017-Mar-19 22:33N 60°13' E 005°35'1 1.3
2017-Mar-19 21:33N 60°13' E 005°32'1 1.5
2017-Mar-19 20:33N 60°13' E 005°35'0 0.2
2017-Mar-19 19:33N 60°12' E 005°36'2 1.5
2017-Mar-19 18:31N 60°13' E 005°33'1 1.0
2017-Mar-19 17:33N 60°13' E 005°35'1 0.5
2017-Mar-19 16:33N 60°13' E 005°34'0 0.3
2017-Mar-19 15:33N 60°13' E 005°33'1 1.1
2017-Mar-19 14:33N 60°13' E 005°35'1 1.0
2017-Mar-19 13:33N 60°13' E 005°33'1 1.0
2017-Mar-19 12:33N 60°13' E 005°35'0 0.3
2017-Mar-19 11:33N 60°12' E 005°36'2 1.5
2017-Mar-19 10:34N 60°13' E 005°33'0 0.1
2017-Mar-19 09:27N 60°13' E 005°32'1 1.4
2017-Mar-19 08:33N 60°13' E 005°35'0 0.5
2017-Mar-19 07:34N 60°12' E 005°36'1 1.1
2017-Mar-19 06:33N 60°13' E 005°33'1 0.1
2017-Mar-18 22:13N 60°13' E 005°32'0 0.0
2017-Mar-18 21:33N 60°13' E 005°32'2 1.6
2017-Mar-18 20:32N 60°12' E 005°36'0 0.0
2017-Mar-18 19:33N 60°12' E 005°36'2 1.7
2017-Mar-18 18:33N 60°13' E 005°32'1 1.0
2017-Mar-18 17:33N 60°13' E 005°34'0 0.4
2017-Mar-18 16:33N 60°13' E 005°33'0 0.2
2017-Mar-18 15:33N 60°13' E 005°33'1 1.2
2017-Mar-18 14:33N 60°13' E 005°35'1 1.1
2017-Mar-18 13:33N 60°13' E 005°33'1 1.2
2017-Mar-18 12:32N 60°12' E 005°35'0 0.2
2017-Mar-18 11:33N 60°12' E 005°36'1 1.2
2017-Mar-18 10:33N 60°13' E 005°33'0 0.4
2017-Mar-18 09:26N 60°13' E 005°33'1 1.3
2017-Mar-18 08:33N 60°13' E 005°35'0 0.4
2017-Mar-18 07:33N 60°12' E 005°36'1 1.0
2017-Mar-18 06:33N 60°13' E 005°34'1 0.7
2017-Mar-18 05:33N 60°13' E 005°32'2 1.6
2017-Mar-18 04:32N 60°12' E 005°36'0 0.0
2017-Mar-18 02:26N 60°12' E 005°36'0 0.0
2017-Mar-18 01:29N 60°12' E 005°36'0 0.0
2017-Mar-18 00:32N 60°12' E 005°36'0 0.0
2017-Mar-17 23:32N 60°12' E 005°36'0 0.2
2017-Mar-17 22:33N 60°12' E 005°35'0 0.2
2017-Mar-17 21:33N 60°12' E 005°36'0 0.0
2017-Mar-17 20:33N 60°12' E 005°36'0 0.0
2017-Mar-17 19:33N 60°12' E 005°36'2 1.5
2017-Mar-17 18:31N 60°13' E 005°33'1 0.9
2017-Mar-17 17:33N 60°13' E 005°34'1 0.5
2017-Mar-17 16:33N 60°13' E 005°33'0 0.2
2017-Mar-17 15:33N 60°13' E 005°33'1 1.3
2017-Mar-17 14:33N 60°12' E 005°36'1 1.3
2017-Mar-17 13:33N 60°13' E 005°33'1 1.1
2017-Mar-17 12:33N 60°13' E 005°35'0 0.3
2017-Mar-17 11:32N 60°12' E 005°36'2 1.7
2017-Mar-17 10:32N 60°13' E 005°32'0 0.3
2017-Mar-17 09:33N 60°13' E 005°33'1 1.1
2017-Mar-17 08:33N 60°13' E 005°35'0 0.3
2017-Mar-17 07:33N 60°12' E 005°36'2 1.7
2017-Mar-17 06:32N 60°13' E 005°32'1 1.3
2017-Mar-17 05:33N 60°13' E 005°35'1 0.2
2017-Mar-16 23:10N 60°13' E 005°32'1 2.3
2017-Mar-16 22:33N 60°13' E 005°35'0 0.3
2017-Mar-16 21:33N 60°12' E 005°36'0 0.0
2017-Mar-16 20:29N 60°12' E 005°36'0 0.0
2017-Mar-16 19:33N 60°12' E 005°36'2 1.5
2017-Mar-16 18:32N 60°13' E 005°33'1 1.1
2017-Mar-16 17:33N 60°13' E 005°35'1 0.7
2017-Mar-16 16:33N 60°13' E 005°34'0 0.2
2017-Mar-16 15:33N 60°13' E 005°33'1 0.3
2017-Mar-16 13:15N 60°13' E 005°34'0 0.7
2017-Mar-16 12:33N 60°12' E 005°35'0 0.2
2017-Mar-16 11:33N 60°12' E 005°36'2 1.6
2017-Mar-16 10:31N 60°13' E 005°32'0 0.3
2017-Mar-16 09:33N 60°13' E 005°33'1 1.2
2017-Mar-16 08:33N 60°13' E 005°35'0 0.4
2017-Mar-16 07:33N 60°12' E 005°36'2 1.6
2017-Mar-16 06:29N 60°13' E 005°32'1 1.4
2017-Mar-16 05:33N 60°13' E 005°35'0 0.4
2017-Mar-16 04:33N 60°12' E 005°36'0 0.0
2017-Mar-16 03:26N 60°12' E 005°36'0 0.0
2017-Mar-16 02:26N 60°12' E 005°36'0 0.0
2017-Mar-16 01:32N 60°12' E 005°36'0 0.0
2017-Mar-16 00:26N 60°12' E 005°36'0 0.0
2017-Mar-15 23:32N 60°12' E 005°36'0 0.3
2017-Mar-15 22:33N 60°13' E 005°35'0 0.3
2017-Mar-15 21:33N 60°13' E 005°36'0 0.1
2017-Mar-15 20:33N 60°12' E 005°36'0 0.0
2017-Mar-15 19:33N 60°12' E 005°36'2 1.7
2017-Mar-15 18:33N 60°13' E 005°32'1 0.9
2017-Mar-15 17:33N 60°13' E 005°34'0 0.3
2017-Mar-15 16:33N 60°13' E 005°34'0 0.2
2017-Mar-15 15:33N 60°13' E 005°33'1 1.0
2017-Mar-15 14:33N 60°13' E 005°35'1 1.0
2017-Mar-15 13:33N 60°13' E 005°33'1 1.1
2017-Mar-15 12:33N 60°13' E 005°35'0 0.2
2017-Mar-15 11:33N 60°12' E 005°36'1 1.2
2017-Mar-15 10:29N 60°13' E 005°33'0 0.1
2017-Mar-15 09:33N 60°13' E 005°33'1 0.7
2017-Mar-15 08:32N 60°13' E 005°35'1 0.6
2017-Mar-15 07:32N 60°12' E 005°36'2 1.6
2017-Mar-15 06:33N 60°13' E 005°33'1 1.2
2017-Mar-15 05:34N 60°13' E 005°35'0 0.4
2017-Mar-15 04:32N 60°12' E 005°36'1 0.3
2017-Mar-14 23:07N 60°13' E 005°33'1 2.4
2017-Mar-14 22:33N 60°13' E 005°35'0 0.3
2017-Mar-14 21:33N 60°12' E 005°36'0 0.0
2017-Mar-14 20:33N 60°12' E 005°36'0 0.0
2017-Mar-14 19:33N 60°12' E 005°36'1 1.3
2017-Mar-14 18:30N 60°13' E 005°33'1 0.7
2017-Mar-14 17:33N 60°13' E 005°34'1 0.5
2017-Mar-14 16:33N 60°13' E 005°33'0 0.1
2017-Mar-14 15:33N 60°13' E 005°33'1 1.2
2017-Mar-14 14:32N 60°13' E 005°36'1 1.3
2017-Mar-14 13:33N 60°13' E 005°33'1 1.1
2017-Mar-14 12:33N 60°13' E 005°35'0 0.3
2017-Mar-14 11:33N 60°12' E 005°36'2 1.5
2017-Mar-14 10:30N 60°13' E 005°33'0 0.1
2017-Mar-14 09:28N 60°13' E 005°32'1 0.6
2017-Mar-14 08:33N 60°13' E 005°34'1 1.1
2017-Mar-14 07:33N 60°12' E 005°36'2 1.6
2017-Mar-14 06:29N 60°13' E 005°32'1 1.4
2017-Mar-14 05:33N 60°13' E 005°35'0 0.5
2017-Mar-14 04:33N 60°12' E 005°36'0 0.0
2017-Mar-14 03:21N 60°12' E 005°36'0 0.0
2017-Mar-14 02:33N 60°12' E 005°36'0 0.0
2017-Mar-14 01:27N 60°12' E 005°36'0 0.0
2017-Mar-14 00:33N 60°12' E 005°36'0 0.0
2017-Mar-13 23:33N 60°12' E 005°36'0 0.2
2017-Mar-13 22:33N 60°12' E 005°35'0 0.2
2017-Mar-13 21:33N 60°12' E 005°36'0 0.1
2017-Mar-13 20:33N 60°12' E 005°36'0 0.1
2017-Mar-13 19:33N 60°12' E 005°36'2 1.7
2017-Mar-13 18:33N 60°13' E 005°32'1 1.2
2017-Mar-13 17:33N 60°13' E 005°35'1 0.7
2017-Mar-13 16:34N 60°13' E 005°33'0 0.2
2017-Mar-13 15:33N 60°13' E 005°33'1 1.2
2017-Mar-13 14:33N 60°13' E 005°35'1 1.2
2017-Mar-13 13:33N 60°13' E 005°33'1 1.2
2017-Mar-13 12:33N 60°13' E 005°35'0 0.2
2017-Mar-13 11:33N 60°12' E 005°36'2 1.5
2017-Mar-13 10:30N 60°13' E 005°33'0 0.4
2017-Mar-13 09:34N 60°13' E 005°33'1 0.5
2017-Mar-13 08:33N 60°13' E 005°34'1 0.6
2017-Mar-13 07:33N 60°12' E 005°36'2 1.7
2017-Mar-13 06:32N 60°13' E 005°32'1 1.3
2017-Mar-13 05:33N 60°13' E 005°35'0 0.4
2017-Mar-13 04:32N 60°12' E 005°36'0 0.0
2017-Mar-13 03:33N 60°12' E 005°36'0 0.0
2017-Mar-13 01:21N 60°12' E 005°36'0 0.0
2017-Mar-13 00:21N 60°12' E 005°36'0 0.0
2017-Mar-12 23:27N 60°12' E 005°36'0 0.4
2017-Mar-12 22:33N 60°12' E 005°35'  

Dump ship's entire track history